Time;durP1;ratioP1;P1;durP2;ratioP2;P2;SDS_P1;SDS_P2;PMS_P1;PMS_P2;Temp;Humidity;BMP_temperature;BMP_pressure;BME280_temperature;BME280_humidity;BME280_pressure;Samples;Min_cycle;Max_cycle;Signal;HPM_P1;HPM_P2
2022/04/11 00:01:19;;;;;;;1.42;1.20;;;3.70;99.90;;;;;;4994299;28;20038;-74
2022/04/11 00:03:45;;;;;;;0.88;0.88;;;3.70;99.90;;;;;;4998454;28;20921;-73
2022/04/11 00:06:11;;;;;;;2.00;1.10;;;3.70;99.90;;;;;;5019514;28;20037;-74
2022/04/11 00:08:38;;;;;;;1.73;1.63;;;3.60;99.90;;;;;;5013818;28;20194;-74
2022/04/11 00:11:04;;;;;;;1.42;0.90;;;3.70;99.90;;;;;;5014371;28;20124;-75
2022/04/11 00:13:29;;;;;;;1.42;1.10;;;3.60;99.90;;;;;;5001848;28;20045;-74
2022/04/11 00:15:55;;;;;;;2.83;1.50;;;3.60;99.90;;;;;;5012962;28;20053;-74
2022/04/11 00:18:20;;;;;;;1.42;1.25;;;3.60;99.90;;;;;;5013883;28;20496;-74
2022/04/11 00:20:47;;;;;;;1.30;1.20;;;3.60;99.90;;;;;;5013014;28;20160;-75
2022/04/11 00:23:13;;;;;;;1.58;1.25;;;2.70;99.90;;;;;;5021792;28;20417;-74
2022/04/11 00:25:39;;;;;;;2.58;1.60;;;3.60;99.90;;;;;;5005932;28;20041;-75
2022/04/11 00:28:05;;;;;;;2.95;1.42;;;3.50;99.90;;;;;;5035750;28;21168;-75
2022/04/11 00:30:31;;;;;;;1.40;1.30;;;3.40;99.90;;;;;;5035233;28;20052;-75
2022/04/11 00:32:56;;;;;;;4.22;1.60;;;3.30;99.90;;;;;;5009176;28;20049;-74
2022/04/11 00:35:22;;;;;;;4.68;1.67;;;3.30;99.90;;;;;;5022305;28;20102;-74
2022/04/11 00:37:47;;;;;;;2.97;1.38;;;3.30;99.90;;;;;;5015673;28;20183;-74
2022/04/11 00:40:13;;;;;;;2.72;1.25;;;3.40;99.90;;;;;;5036044;28;20085;-74
2022/04/11 00:42:40;;;;;;;2.80;1.27;;;3.30;99.90;;;;;;5021259;28;20041;-75
2022/04/11 00:45:07;;;;;;;1.30;1.20;;;3.20;99.90;;;;;;4996221;28;20084;-73
2022/04/11 00:47:33;;;;;;;1.60;1.40;;;3.10;99.90;;;;;;5008015;28;20041;-74
2022/04/11 00:50:05;;;;;;;3.55;1.95;;;3.10;99.90;;;;;;5015863;28;20535;-74
2022/04/11 00:52:33;;;;;;;1.60;1.13;;;3.10;99.90;;;;;;4999563;28;20046;-74
2022/04/11 00:54:59;;;;;;;2.60;1.70;;;3.00;99.90;;;;;;4997847;28;20874;-74
2022/04/11 00:57:26;;;;;;;2.47;2.05;;;3.00;99.90;;;;;;5035314;28;20048;-74
2022/04/11 00:59:53;;;;;;;1.30;1.15;;;3.00;99.90;;;;;;5029375;28;20087;-75
2022/04/11 01:02:18;;;;;;;1.70;1.25;;;3.00;99.90;;;;;;4999826;28;20114;-74
2022/04/11 01:04:44;;;;;;;2.70;1.20;;;2.90;99.90;;;;;;5035419;28;20045;-74
2022/04/11 01:07:09;;;;;;;2.13;1.40;;;2.90;99.90;;;;;;5035013;28;20049;-75
2022/04/11 01:09:35;;;;;;;3.75;2.08;;;2.90;99.90;;;;;;5036346;28;20527;-74
2022/04/11 01:12:02;;;;;;;1.98;1.40;;;2.90;99.90;;;;;;5006261;28;20409;-74
2022/04/11 01:14:28;;;;;;;1.88;1.45;;;2.80;99.90;;;;;;5010240;28;20885;-74
2022/04/11 01:16:57;;;;;;;4.07;1.20;;;2.80;99.90;;;;;;5002580;28;20050;-74
2022/04/11 01:19:23;;;;;;;4.50;2.10;;;2.80;99.90;;;;;;5016789;28;20068;-74
2022/04/11 01:21:49;;;;;;;1.88;1.30;;;2.80;99.90;;;;;;5029917;28;20083;-73
2022/04/11 01:24:22;;;;;;;1.60;1.50;;;2.80;99.90;;;;;;5033154;28;20132;-74
2022/04/11 01:26:50;;;;;;;4.40;1.98;;;2.90;99.90;;;;;;4997525;28;20088;-74
2022/04/11 01:29:17;;;;;;;2.58;1.38;;;2.90;99.90;;;;;;5008862;28;20144;-74
2022/04/11 01:31:43;;;;;;;2.15;1.48;;;2.80;99.90;;;;;;5017997;28;20045;-74
2022/04/11 01:34:09;;;;;;;2.78;1.33;;;2.70;99.90;;;;;;5037972;28;20095;-74
2022/04/11 01:36:34;;;;;;;2.78;1.30;;;2.70;99.90;;;;;;5021831;28;20568;-74
2022/04/11 01:39:00;;;;;;;1.30;1.10;;;2.70;99.90;;;;;;5021765;28;20051;-74
2022/04/11 01:41:26;;;;;;;3.28;1.70;;;2.70;99.90;;;;;;5021306;28;20912;-74
2022/04/11 01:43:52;;;;;;;1.77;1.55;;;2.70;99.90;;;;;;5039592;28;20040;-74
2022/04/11 01:46:17;;;;;;;1.50;1.40;;;2.60;99.90;;;;;;5039674;28;20071;-74
2022/04/11 01:48:43;;;;;;;5.05;1.98;;;2.70;99.90;;;;;;5020405;28;20714;-74
2022/04/11 01:51:09;;;;;;;1.90;1.42;;;2.70;99.90;;;;;;5025325;28;20625;-74
2022/04/11 01:53:34;;;;;;;2.85;1.30;;;2.80;99.90;;;;;;4999586;28;20057;-74
2022/04/11 01:56:00;;;;;;;2.28;1.33;;;2.70;99.90;;;;;;5002404;28;20052;-74
2022/04/11 01:58:26;;;;;;;1.85;1.33;;;2.60;99.90;;;;;;5037417;28;20048;-74
2022/04/11 02:00:51;;;;;;;1.67;1.52;;;2.60;99.90;;;;;;5038005;28;20847;-74
2022/04/11 02:03:17;;;;;;;2.67;1.05;;;2.60;99.90;;;;;;5038620;28;20728;-74
2022/04/11 02:05:43;;;;;;;1.42;1.30;;;2.70;99.90;;;;;;5009451;28;20046;-74
2022/04/11 02:08:10;;;;;;;1.50;1.40;;;2.60;99.90;;;;;;5008460;28;20757;-74
2022/04/11 02:10:39;;;;;;;2.60;1.50;;;2.60;99.90;;;;;;5000562;28;20062;-74
2022/04/11 02:13:05;;;;;;;1.95;1.40;;;2.60;99.90;;;;;;5001061;28;20751;-74
2022/04/11 02:15:31;;;;;;;2.90;2.03;;;2.50;99.90;;;;;;5019067;28;20160;-74
2022/04/11 02:17:57;;;;;;;5.43;1.30;;;2.50;99.90;;;;;;5018730;28;20045;-74
2022/04/11 02:20:23;;;;;;;1.65;1.38;;;2.40;99.90;;;;;;5001654;28;20099;-75
2022/04/11 02:22:59;;;;;;;0.98;0.82;;;2.50;99.90;;;;;;5018482;28;20137;-75
2022/04/11 02:25:30;;;;;;;2.17;1.52;;;2.50;99.90;;;;;;4992005;28;20061;-75
2022/04/11 02:27:59;;;;;;;1.25;1.08;;;2.50;99.90;;;;;;5004735;28;20129;-75
2022/04/11 02:30:26;;;;;;;3.20;1.65;;;2.50;99.90;;;;;;5033192;28;20053;-75
2022/04/11 02:32:52;;;;;;;1.90;1.30;;;2.60;99.90;;;;;;5034523;28;20128;-75
2022/04/11 02:35:18;;;;;;;3.33;1.92;;;2.60;99.90;;;;;;5035032;28;20049;-75
2022/04/11 02:37:44;;;;;;;3.85;1.60;;;2.60;99.90;;;;;;5018184;28;20053;-75
2022/04/11 02:40:12;;;;;;;3.33;1.42;;;2.70;99.90;;;;;;5033543;28;20048;-75
2022/04/11 02:42:41;;;;;;;2.33;1.65;;;2.70;99.90;;;;;;5038303;28;20049;-75
2022/04/11 02:45:07;;;;;;;4.43;1.77;;;2.70;99.90;;;;;;5018436;28;20050;-75
2022/04/11 02:47:34;;;;;;;3.08;1.85;;;2.70;99.90;;;;;;5018922;28;20077;-75
2022/04/11 02:49:59;;;;;;;1.70;1.50;;;2.70;99.90;;;;;;5000545;28;20057;-75
2022/04/11 02:52:25;;;;;;;2.10;1.38;;;3.20;99.90;;;;;;5018551;28;20535;-74
2022/04/11 02:54:50;;;;;;;1.40;1.30;;;2.60;99.90;;;;;;5015743;28;20917;-75
2022/04/11 02:57:16;;;;;;;1.48;1.30;;;2.70;99.90;;;;;;4999377;28;20783;-75
2022/04/11 02:59:41;;;;;;;3.78;2.53;;;2.60;99.90;;;;;;4997605;28;20801;-75
2022/04/11 03:02:07;;;;;;;3.40;1.30;;;2.60;99.90;;;;;;5017616;28;20906;-75
2022/04/11 03:04:33;;;;;;;1.42;1.23;;;2.60;99.90;;;;;;4999334;28;20743;-75
2022/04/11 03:06:58;;;;;;;2.78;2.58;;;2.50;99.90;;;;;;5035312;28;20045;-75
2022/04/11 03:09:24;;;;;;;1.85;1.75;;;2.50;99.90;;;;;;5038373;28;20109;-75
2022/04/11 03:11:50;;;;;;;2.15;1.83;;;2.50;99.90;;;;;;5036525;28;20060;-75
2022/04/11 03:14:15;;;;;;;3.40;2.13;;;2.40;99.90;;;;;;5037017;28;20060;-74
2022/04/11 03:16:41;;;;;;;1.33;1.23;;;2.30;99.90;;;;;;5019347;28;20144;-75
2022/04/11 03:19:07;;;;;;;3.20;1.45;;;2.10;99.90;;;;;;5036761;28;20059;-75
2022/04/11 03:21:33;;;;;;;3.42;1.33;;;2.20;99.90;;;;;;5037528;28;20049;-75
2022/04/11 03:23:59;;;;;;;2.33;1.33;;;2.10;99.90;;;;;;5018837;28;20412;-74
2022/04/11 03:26:24;;;;;;;2.85;1.20;;;2.20;99.90;;;;;;5027313;28;20056;-75
2022/04/11 03:28:50;;;;;;;1.55;1.40;;;2.20;99.90;;;;;;5003843;28;20044;-74
2022/04/11 03:31:15;;;;;;;1.48;1.38;;;2.20;99.90;;;;;;5036542;28;20053;-75
2022/04/11 03:33:41;;;;;;;1.95;1.35;;;2.20;99.90;;;;;;5016954;28;20050;-75
2022/04/11 03:36:06;;;;;;;3.70;2.08;;;2.20;99.90;;;;;;5028598;28;20568;-74
2022/04/11 03:38:32;;;;;;;1.95;1.25;;;2.20;99.90;;;;;;5037057;28;20045;-75
2022/04/11 03:40:57;;;;;;;2.00;1.77;;;2.30;99.90;;;;;;5035717;28;20063;-75
2022/04/11 03:43:23;;;;;;;2.13;1.52;;;2.30;99.90;;;;;;5036982;28;20049;-74
2022/04/11 03:45:48;;;;;;;1.63;1.40;;;2.30;99.90;;;;;;5015410;28;20059;-74
2022/04/11 03:48:14;;;;;;;1.65;1.30;;;2.40;99.90;;;;;;5014848;28;20056;-74
2022/04/11 03:50:41;;;;;;;1.70;1.20;;;2.40;99.90;;;;;;5017008;28;20049;-74
2022/04/11 03:53:06;;;;;;;1.30;1.15;;;2.50;99.90;;;;;;4999386;28;20491;-74
2022/04/11 03:55:32;;;;;;;2.90;1.73;;;2.50;99.90;;;;;;4998005;28;20049;-75
2022/04/11 03:57:57;;;;;;;2.17;1.55;;;2.60;99.90;;;;;;5015187;28;20148;-74
2022/04/11 04:00:23;;;;;;;2.15;1.95;;;2.60;99.90;;;;;;5014886;28;20056;-74
2022/04/11 04:02:49;;;;;;;1.83;1.35;;;2.70;99.90;;;;;;5015350;28;20046;-74
2022/04/11 04:05:15;;;;;;;1.83;1.13;;;2.80;99.90;;;;;;5014189;28;20041;-74
2022/04/11 04:07:41;;;;;;;1.77;1.60;;;2.80;99.90;;;;;;5015511;28;20140;-75
2022/04/11 04:10:07;;;;;;;1.98;1.80;;;2.90;99.90;;;;;;5016772;28;20068;-74
2022/04/11 04:12:33;;;;;;;3.83;2.00;;;2.80;99.90;;;;;;5011964;28;20049;-74
2022/04/11 04:14:59;;;;;;;6.93;2.72;;;2.80;99.90;;;;;;5031210;28;20094;-74
2022/04/11 04:17:25;;;;;;;3.83;2.65;;;2.70;99.90;;;;;;5019665;28;20073;-74
2022/04/11 04:19:50;;;;;;;3.38;2.55;;;2.60;99.90;;;;;;5019053;28;20053;-75
2022/04/11 04:22:16;;;;;;;4.85;2.17;;;2.50;99.90;;;;;;5035877;28;20055;-74
2022/04/11 04:24:42;;;;;;;3.40;2.40;;;2.40;99.90;;;;;;5012890;28;20154;-74
2022/04/11 04:27:08;;;;;;;2.15;1.95;;;2.40;99.90;;;;;;5016566;28;20137;-75
2022/04/11 04:29:34;;;;;;;2.05;1.90;;;2.30;99.90;;;;;;5026615;28;20134;-74
2022/04/11 04:32:00;;;;;;;3.38;2.05;;;2.30;99.90;;;;;;5036494;28;20049;-74
2022/04/11 04:34:26;;;;;;;3.45;2.17;;;2.40;99.90;;;;;;5036932;28;20131;-74
2022/04/11 04:36:53;;;;;;;3.65;1.98;;;2.60;99.90;;;;;;5035918;28;20835;-74
2022/04/11 04:39:18;;;;;;;3.13;2.08;;;2.70;99.90;;;;;;5018092;28;20122;-74
2022/04/11 04:41:44;;;;;;;2.85;1.95;;;2.80;99.90;;;;;;5018476;28;20041;-74
2022/04/11 04:44:10;;;;;;;1.80;1.67;;;2.90;99.90;;;;;;5008451;28;20041;-74
2022/04/11 04:46:36;;;;;;;5.72;2.33;;;2.90;99.90;;;;;;5020906;28;20089;-74
2022/04/11 04:49:02;;;;;;;3.80;2.00;;;3.00;99.90;;;;;;5016388;28;20436;-74
2022/04/11 04:51:28;;;;;;;3.08;1.85;;;3.10;99.90;;;;;;4997328;28;20041;-74
2022/04/11 04:53:54;;;;;;;2.17;1.98;;;3.20;99.90;;;;;;5032142;28;20041;-74
2022/04/11 04:56:20;;;;;;;6.10;2.03;;;3.20;99.90;;;;;;5014332;28;20057;-74
2022/04/11 04:58:46;;;;;;;2.10;1.88;;;3.20;99.90;;;;;;5031085;28;20049;-74
2022/04/11 05:01:13;;;;;;;2.83;1.77;;;3.30;99.90;;;;;;5031310;28;20049;-74
2022/04/11 05:03:38;;;;;;;2.10;2.00;;;3.40;99.90;;;;;;5015803;28;20102;-74
2022/04/11 05:06:04;;;;;;;3.58;1.85;;;3.40;99.90;;;;;;4998631;28;20824;-74
2022/04/11 05:08:30;;;;;;;3.42;2.53;;;3.50;99.90;;;;;;5015406;28;20045;-74
2022/04/11 05:10:55;;;;;;;2.83;2.45;;;3.50;99.90;;;;;;5012678;28;20067;-75
2022/04/11 05:13:22;;;;;;;3.25;2.10;;;3.50;99.90;;;;;;5033366;28;20720;-74
2022/04/11 05:15:48;;;;;;;2.50;2.03;;;3.60;99.90;;;;;;5032911;28;20097;-74
2022/04/11 05:18:13;;;;;;;4.28;2.38;;;3.60;99.90;;;;;;5004228;28;20170;-75
2022/04/11 05:20:40;;;;;;;5.70;2.08;;;3.60;99.90;;;;;;5029534;28;20041;-75
2022/04/11 05:23:05;;;;;;;2.53;2.20;;;3.70;99.90;;;;;;5032422;28;20041;-75
2022/04/11 05:25:31;;;;;;;4.15;2.30;;;3.80;99.90;;;;;;5025366;28;20083;-75
2022/04/11 05:27:57;;;;;;;2.65;2.22;;;3.90;99.90;;;;;;5014857;28;20102;-74
2022/04/11 05:30:22;;;;;;;4.00;2.10;;;3.90;99.90;;;;;;5031894;28;20053;-75
2022/04/11 05:32:48;;;;;;;3.65;2.50;;;3.90;99.90;;;;;;5014151;28;20148;-74
2022/04/11 05:35:13;;;;;;;2.63;2.42;;;3.90;99.90;;;;;;5028404;28;20089;-74
2022/04/11 05:37:39;;;;;;;1.70;1.60;;;3.90;99.90;;;;;;4995544;28;20123;-74
2022/04/11 05:40:05;;;;;;;2.60;2.10;;;4.00;99.90;;;;;;5030348;28;20086;-75
2022/04/11 05:42:31;;;;;;;2.55;2.30;;;4.00;99.90;;;;;;5032840;28;20735;-74
2022/04/11 05:44:57;;;;;;;3.40;2.70;;;4.00;99.90;;;;;;5027642;28;20042;-75
2022/04/11 05:47:23;;;;;;;2.35;2.00;;;4.10;99.90;;;;;;5012939;28;20211;-75
2022/04/11 05:49:48;;;;;;;3.78;2.72;;;4.10;99.90;;;;;;4995764;28;20345;-75
2022/04/11 05:52:18;;;;;;;3.30;2.80;;;4.00;99.90;;;;;;5021364;28;20041;-75
2022/04/11 05:54:44;;;;;;;3.38;1.77;;;4.00;99.90;;;;;;4994488;28;20061;-74
2022/04/11 05:57:10;;;;;;;3.38;1.73;;;4.10;99.90;;;;;;4994959;28;20049;-75
2022/04/11 05:59:36;;;;;;;2.85;2.42;;;4.10;99.90;;;;;;5013129;28;20055;-75
2022/04/11 06:02:01;;;;;;;2.78;2.45;;;4.10;99.90;;;;;;5030201;28;20053;-74
2022/04/11 06:04:27;;;;;;;3.58;2.65;;;4.30;99.90;;;;;;5020272;28;20867;-75
2022/04/11 06:06:52;;;;;;;2.83;2.55;;;4.40;99.90;;;;;;5013336;28;20596;-75
2022/04/11 06:09:18;;;;;;;3.80;2.72;;;4.50;99.90;;;;;;5013183;28;20041;-75
2022/04/11 06:11:43;;;;;;;3.42;2.55;;;4.60;99.90;;;;;;5018091;28;20057;-76
2022/04/11 06:14:09;;;;;;;2.53;2.15;;;4.50;99.90;;;;;;5031529;28;20049;-75
2022/04/11 06:16:34;;;;;;;3.05;2.60;;;4.60;99.90;;;;;;5014644;28;20071;-75
2022/04/11 06:19:00;;;;;;;3.00;2.42;;;4.60;99.90;;;;;;5014623;28;20452;-75
2022/04/11 06:21:26;;;;;;;6.18;3.17;;;4.60;99.90;;;;;;5016894;28;20080;-75
2022/04/11 06:23:51;;;;;;;6.63;3.85;;;4.60;99.90;;;;;;5036125;28;20041;-75
2022/04/11 06:26:17;;;;;;;4.43;3.17;;;4.60;99.90;;;;;;5017474;28;20057;-75
2022/04/11 06:28:42;;;;;;;7.78;3.53;;;4.60;99.90;;;;;;5016202;28;20056;-75
2022/04/11 06:31:10;;;;;;;5.00;2.97;;;4.60;99.90;;;;;;5033545;28;20087;-75
2022/04/11 06:33:37;;;;;;;4.53;2.75;;;4.60;99.90;;;;;;5036031;28;20055;-75
2022/04/11 06:36:03;;;;;;;7.55;3.15;;;4.70;99.90;;;;;;5016001;28;20076;-74
2022/04/11 06:38:28;;;;;;;5.43;3.85;;;4.70;99.90;;;;;;5016390;28;20053;-75
2022/04/11 06:40:55;;;;;;;7.75;3.53;;;4.60;99.90;;;;;;5035688;28;20583;-75
2022/04/11 06:43:21;;;;;;;5.95;3.53;;;4.60;99.90;;;;;;5035284;28;20127;-75
2022/04/11 06:45:46;;;;;;;5.75;3.35;;;4.60;99.90;;;;;;5036481;28;20056;-75
2022/04/11 06:48:12;;;;;;;5.20;3.63;;;4.60;99.90;;;;;;5035929;28;20502;-75
2022/04/11 06:50:38;;;;;;;7.00;3.00;;;4.50;99.90;;;;;;5033408;28;20642;-75
2022/04/11 06:53:03;;;;;;;4.28;3.50;;;4.50;99.90;;;;;;5007713;28;20225;-75
2022/04/11 06:55:29;;;;;;;3.95;3.15;;;4.60;99.90;;;;;;5030064;28;20929;-75
2022/04/11 06:57:54;;;;;;;3.67;3.22;;;4.60;99.90;;;;;;4996076;28;20147;-76
2022/04/11 07:00:20;;;;;;;2.97;2.75;;;4.70;99.90;;;;;;4666488;28;10000105;-75
2022/04/11 07:02:45;;;;;;;6.03;2.70;;;4.70;99.90;;;;;;4993503;28;20195;-75
2022/04/11 07:05:11;;;;;;;6.88;3.13;;;4.80;99.90;;;;;;5010805;28;20049;-76
2022/04/11 07:07:39;;;;;;;4.15;3.13;;;4.90;99.90;;;;;;4993388;28;20049;-75
2022/04/11 07:10:05;;;;;;;3.97;2.65;;;5.10;99.90;;;;;;5012639;28;20069;-75
2022/04/11 07:12:31;;;;;;;4.20;2.97;;;5.20;99.90;;;;;;5012786;28;20049;-76
2022/04/11 07:15:00;;;;;;;5.50;2.90;;;5.30;99.90;;;;;;4991247;28;20053;-74
2022/04/11 07:17:27;;;;;;;5.53;3.65;;;5.40;99.90;;;;;;5011144;28;20037;-75
2022/04/11 07:19:52;;;;;;;4.63;3.03;;;5.60;99.90;;;;;;5012612;28;20077;-74
2022/04/11 07:22:21;;;;;;;8.50;3.42;;;5.70;99.90;;;;;;4996814;28;20483;-74
2022/04/11 07:24:47;;;;;;;3.72;2.38;;;5.90;99.90;;;;;;5011131;28;20128;-74
2022/04/11 07:27:13;;;;;;;3.72;3.20;;;6.00;99.90;;;;;;4995245;28;20097;-74
2022/04/11 07:29:38;;;;;;;4.15;3.25;;;6.10;99.90;;;;;;5014585;28;20132;-74
2022/04/11 07:32:04;;;;;;;4.60;3.00;;;6.20;99.90;;;;;;4997429;28;20052;-73
2022/04/11 07:34:30;;;;;;;5.18;3.10;;;6.30;99.90;;;;;;4993868;28;21108;-81
2022/04/11 07:36:55;;;;;;;5.00;4.13;;;6.40;99.90;;;;;;5010699;28;20029;-79
2022/04/11 07:39:23;;;;;;;4.60;3.35;;;5.90;99.90;;;;;;5012687;28;20516;-80
2022/04/11 07:41:49;;;;;;;5.35;3.03;;;6.50;99.90;;;;;;5014586;28;20053;-79
2022/04/11 07:44:15;;;;;;;5.50;3.03;;;6.60;99.90;;;;;;5018265;28;20088;-74
2022/04/11 07:46:41;;;;;;;5.43;3.30;;;6.70;99.90;;;;;;4996064;28;20061;-74
2022/04/11 07:49:06;;;;;;;4.97;3.95;;;6.80;99.90;;;;;;5016732;28;20590;-73
2022/04/11 07:51:35;;;;;;;7.82;3.53;;;6.90;99.90;;;;;;5011734;28;20163;-73
2022/04/11 07:54:01;;;;;;;5.75;3.95;;;7.00;99.90;;;;;;4992481;28;20053;-74
2022/04/11 07:56:29;;;;;;;4.53;3.20;;;7.20;99.90;;;;;;5011641;28;20115;-74
2022/04/11 07:58:55;;;;;;;4.57;3.83;;;7.50;99.90;;;;;;5012909;28;20056;-74
2022/04/11 08:01:21;;;;;;;5.07;3.22;;;7.80;99.90;;;;;;5014205;28;20765;-74
2022/04/11 08:03:47;;;;;;;4.68;3.40;;;8.10;99.90;;;;;;5011776;28;20124;-74
2022/04/11 08:06:13;;;;;;;7.93;3.85;;;8.40;99.90;;;;;;4993777;28;20382;-74
2022/04/11 08:08:44;;;;;;;4.53;3.15;;;8.80;99.90;;;;;;5011241;28;20107;-74
2022/04/11 08:11:20;;;;;;;4.32;3.80;;;9.10;99.90;;;;;;5014394;28;20107;-74
2022/04/11 08:13:45;;;;;;;6.05;3.47;;;9.20;99.90;;;;;;4995479;28;20049;-74
2022/04/11 08:16:12;;;;;;;3.90;3.50;;;9.30;99.90;;;;;;5014664;28;20049;-73
2022/04/11 08:18:38;;;;;;;8.63;3.53;;;9.60;99.90;;;;;;4996029;28;20107;-73
2022/04/11 08:21:04;;;;;;;4.78;4.03;;;10.00;99.90;;;;;;5014846;28;20144;-74
2022/04/11 08:23:30;;;;;;;7.22;3.63;;;10.30;99.90;;;;;;5014513;28;20038;-74
2022/04/11 08:25:56;;;;;;;5.82;3.97;;;11.00;99.90;;;;;;5016106;28;20076;-74
2022/04/11 08:28:23;;;;;;;6.20;3.22;;;11.70;99.90;;;;;;5014489;28;20049;-74
2022/04/11 08:30:49;;;;;;;4.57;3.22;;;12.20;99.90;;;;;;5006660;28;20056;-75
2022/04/11 08:33:15;;;;;;;4.63;3.42;;;12.50;99.90;;;;;;5018172;28;20049;-74
2022/04/11 08:35:41;;;;;;;4.90;3.22;;;12.80;99.90;;;;;;4997412;28;20049;-74
2022/04/11 08:38:07;;;;;;;4.97;3.35;;;13.20;99.90;;;;;;5015898;28;20506;-74
2022/04/11 08:40:32;;;;;;;5.10;3.55;;;13.00;99.90;;;;;;5004224;28;20117;-74
2022/04/11 08:42:59;;;;;;;5.57;3.25;;;12.80;99.10;;;;;;5028629;28;20092;-75
2022/04/11 08:45:27;;;;;;;5.35;3.50;;;12.40;99.90;;;;;;5028640;28;20537;-76
2022/04/11 08:47:59;;;;;;;6.63;3.53;;;12.70;99.90;;;;;;4992869;28;20041;-73
2022/04/11 08:50:25;;;;;;;3.80;2.97;;;13.00;99.90;;;;;;5012275;28;20048;-74
2022/04/11 08:52:53;;;;;;;3.72;2.92;;;13.60;99.90;;;;;;5012272;28;20132;-73
2022/04/11 08:55:19;;;;;;;6.53;3.25;;;13.70;99.80;;;;;;4993991;28;20092;-74
2022/04/11 08:57:45;;;;;;;4.63;2.92;;;12.90;97.30;;;;;;5010372;28;20064;-74
2022/04/11 09:00:16;;;;;;;5.15;2.70;;;12.50;99.90;;;;;;5015061;28;20049;-73
2022/04/11 09:02:42;;;;;;;3.13;2.53;;;12.90;99.90;;;;;;4999182;28;20066;-73
2022/04/11 09:05:09;;;;;;;4.15;3.03;;;13.20;99.90;;;;;;4995684;28;20087;-73
2022/04/11 09:07:45;;;;;;;6.60;3.22;;;13.60;99.10;;;;;;4992331;28;20053;-74
2022/04/11 09:10:11;;;;;;;3.00;2.78;;;14.30;96.80;;;;;;5010724;28;20049;-73
2022/04/11 09:12:48;;;;;;;7.15;2.65;;;15.10;97.60;;;;;;4997573;28;20102;-73
2022/04/11 09:15:15;;;;;;;5.20;2.88;;;16.00;95.10;;;;;;4995661;28;20041;-74
2022/04/11 09:17:42;;;;;;;3.20;2.67;;;16.60;94.20;;;;;;4664284;28;10001094;-74
2022/04/11 09:20:13;;;;;;;6.38;2.78;;;17.30;93.40;;;;;;5006888;28;20050;-74
2022/04/11 09:22:39;;;;;;;2.92;2.33;;;17.30;92.60;;;;;;5011957;28;20914;-75
2022/04/11 09:25:11;;;;;;;5.32;2.63;;;17.30;92.20;;;;;;5013542;28;20286;-73
2022/04/11 09:27:37;;;;;;;4.65;2.75;;;17.60;91.20;;;;;;5014366;28;20048;-74
2022/04/11 09:30:26;;;;;;;4.65;2.78;;;17.90;90.80;;;;;;5013547;28;20469;-74
2022/04/11 09:32:51;;;;;;;2.65;2.40;;;17.30;85.80;;;;;;5007443;28;20045;-74
2022/04/11 09:35:22;;;;;;;2.75;2.33;;;16.60;90.90;;;;;;4995264;28;20069;-74
2022/04/11 09:37:48;;;;;;;3.53;2.40;;;16.50;90.90;;;;;;4992446;28;20042;-74
2022/04/11 09:40:20;;;;;;;3.42;2.08;;;16.60;91.20;;;;;;4993723;28;20144;-73
2022/04/11 09:42:47;;;;;;;4.53;2.47;;;17.20;89.60;;;;;;5013479;28;20138;-74
2022/04/11 09:45:17;;;;;;;4.15;2.25;;;17.60;90.50;;;;;;5007963;28;20926;-75
2022/04/11 09:48:02;;;;;;;8.82;2.50;;;18.20;87.00;;;;;;5010848;28;20049;-73
2022/04/11 09:50:31;;;;;;;3.65;2.03;;;18.60;82.10;;;;;;5010862;28;20597;-73
2022/04/11 09:53:13;;;;;;;5.60;2.55;;;18.80;81.00;;;;;;5011808;28;20044;-73
2022/04/11 09:55:39;;;;;;;4.25;2.20;;;18.60;79.00;;;;;;5012893;28;20045;-74
2022/04/11 09:58:06;;;;;;;3.08;2.50;;;18.00;80.40;;;;;;5013609;28;20162;-74
2022/04/11 10:00:37;;;;;;;4.13;2.75;;;17.60;84.10;;;;;;4995887;28;20037;-74
2022/04/11 10:03:05;;;;;;;3.70;2.33;;;17.50;80.50;;;;;;5014413;28;20492;-74
2022/04/11 10:05:33;;;;;;;4.60;2.80;;;17.20;80.60;;;;;;5015015;28;20061;-73
2022/04/11 10:07:59;;;;;;;3.55;2.47;;;17.10;83.80;;;;;;4998088;28;20088;-74
2022/04/11 10:10:25;;;;;;;4.97;2.42;;;17.20;81.30;;;;;;5017656;28;20208;-75
2022/04/11 10:12:53;;;;;;;5.57;2.10;;;16.90;82.60;;;;;;4999866;28;21044;-75
2022/04/11 10:15:22;;;;;;;2.95;2.63;;;16.80;83.30;;;;;;4997142;28;20049;-74
2022/04/11 10:17:53;;;;;;;2.83;1.95;;;17.10;83.00;;;;;;5019945;28;20049;-74
2022/04/11 10:20:34;;;;;;;2.90;2.55;;;17.10;81.50;;;;;;5015430;28;20045;-74
2022/04/11 10:23:00;;;;;;;4.43;2.05;;;17.40;79.20;;;;;;4999887;28;20493;-74
2022/04/11 10:25:27;;;;;;;3.22;2.20;;;17.90;80.00;;;;;;5000473;28;20107;-74
2022/04/11 10:28:22;;;;;;;3.65;1.70;;;18.30;77.90;;;;;;4999446;28;20048;-74
2022/04/11 10:31:11;;;;;;;4.18;2.58;;;17.60;70.40;;;;;;5000184;28;20061;-74
2022/04/11 10:33:49;;;;;;;3.35;2.10;;;18.00;73.10;;;;;;5018671;28;20037;-75
2022/04/11 10:36:40;;;;;;;3.45;2.00;;;17.90;69.30;;;;;;5018534;28;20142;-74
2022/04/11 10:39:14;;;;;;;5.57;2.05;;;18.10;70.80;;;;;;5020045;28;20053;-73
2022/04/11 10:41:58;;;;;;;6.30;2.40;;;18.00;68.50;;;;;;5016706;28;20041;-74
2022/04/11 10:44:38;;;;;;;3.45;1.88;;;18.40;68.50;;;;;;5005118;28;20052;-73
2022/04/11 10:47:09;;;;;;;3.30;2.10;;;18.70;66.80;;;;;;5002160;28;20049;-73
2022/04/11 10:49:44;;;;;;;4.60;2.33;;;17.40;64.00;;;;;;4996639;28;20073;-73
2022/04/11 10:52:36;;;;;;;2.85;2.03;;;17.40;66.70;;;;;;5013466;28;20052;-74
2022/04/11 10:55:19;;;;;;;4.75;1.88;;;16.30;66.70;;;;;;4998016;28;20056;-73
2022/04/11 10:57:45;;;;;;;;;;;15.70;69.90;;;;;;5001358;28;20053;-73
2022/04/11 11:00:17;;;;;;;4.47;3.67;;;15.20;70.00;;;;;;4999748;28;19987;-73
2022/04/11 11:02:52;;;;;;;2.42;1.90;;;14.10;72.90;;;;;;4999331;28;20133;-72
2022/04/11 11:05:36;;;;;;;1.95;1.63;;;14.10;71.50;;;;;;5017137;28;20110;-73
2022/04/11 11:08:11;;;;;;;3.35;2.05;;;14.10;70.70;;;;;;5017269;28;20423;-73
2022/04/11 11:10:48;;;;;;;3.28;1.73;;;14.10;70.50;;;;;;4998595;28;20179;-73
2022/04/11 11:13:27;;;;;;;8.20;2.33;;;14.00;70.00;;;;;;4986806;28;20056;-73
2022/04/11 11:15:57;;;;;;;5.70;2.45;;;14.10;73.70;;;;;;5015384;28;20049;-72
2022/04/11 11:18:23;;;;;;;3.78;2.58;;;14.00;72.80;;;;;;5013892;28;20041;-73
2022/04/11 11:20:53;;;;;;;3.13;2.20;;;13.90;73.20;;;;;;5001441;28;20052;-73
2022/04/11 11:23:31;;;;;;;4.07;2.03;;;13.50;75.00;;;;;;5016205;28;20128;-73
2022/04/11 11:26:11;;;;;;;4.70;3.25;;;13.70;75.00;;;;;;4998924;28;20099;-72
2022/04/11 11:28:37;;;;;;;2.13;1.92;;;13.90;72.80;;;;;;4997683;28;20041;-72
2022/04/11 11:31:04;;;;;;;3.15;2.28;;;14.00;72.00;;;;;;4998824;28;20752;-72
2022/04/11 11:33:29;;;;;;;3.38;2.38;;;14.10;71.00;;;;;;5016634;28;20057;-72
2022/04/11 11:35:56;;;;;;;3.05;2.75;;;14.20;70.40;;;;;;5016670;28;20069;-73
2022/04/11 11:38:27;;;;;;;3.60;2.45;;;14.10;71.70;;;;;;5016819;28;20045;-72
2022/04/11 11:41:00;;;;;;;3.30;2.05;;;13.90;72.60;;;;;;5005454;28;20045;-72
2022/04/11 11:43:28;;;;;;;3.03;2.65;;;13.90;72.00;;;;;;5017078;28;20642;-71
2022/04/11 11:45:59;;;;;;;5.05;2.63;;;14.00;72.90;;;;;;5031383;28;20143;-72
2022/04/11 11:48:30;;;;;;;3.05;2.60;;;14.00;73.20;;;;;;5034016;28;20885;-72
2022/04/11 11:50:58;;;;;;;3.42;2.40;;;14.10;71.30;;;;;;5027041;28;20038;-73
2022/04/11 11:53:40;;;;;;;3.63;2.60;;;14.00;70.30;;;;;;4997163;28;20049;-73
2022/04/11 11:56:08;;;;;;;5.47;2.85;;;13.70;71.10;;;;;;4998105;28;20049;-72
2022/04/11 11:58:35;;;;;;;6.80;2.88;;;13.60;69.40;;;;;;4998322;28;20055;-71
2022/04/11 12:01:02;;;;;;;5.75;2.88;;;13.60;72.70;;;;;;5015687;28;20083;-62
2022/04/11 12:06:13;;;;;;;6.07;3.00;;;13.80;71.60;;;;;;5015527;28;20108;-71
2022/04/11 12:08:39;;;;;;;3.25;2.78;;;13.90;71.30;;;;;;5017711;28;20516;-71
2022/04/11 12:11:04;;;;;;;5.70;3.03;;;14.00;71.70;;;;;;4996361;28;20050;-70
2022/04/11 12:13:32;;;;;;;3.80;2.90;;;14.20;72.50;;;;;;4995085;28;20690;-70
2022/04/11 12:16:10;;;;;;;3.13;2.55;;;14.30;71.00;;;;;;4997063;28;20042;-70
2022/04/11 12:18:52;;;;;;;3.95;2.50;;;14.20;69.80;;;;;;4993897;28;20112;-70
2022/04/11 12:21:27;;;;;;;5.00;2.90;;;14.30;70.50;;;;;;4999797;28;20045;-70
2022/04/11 12:23:53;;;;;;;3.10;2.80;;;14.20;71.40;;;;;;5016059;28;20064;-70
2022/04/11 12:26:26;;;;;;;6.32;3.20;;;14.40;71.50;;;;;;4999226;28;20050;-70
2022/04/11 12:28:52;;;;;;;3.78;3.17;;;14.20;70.40;;;;;;4996507;28;20042;-70
2022/04/11 12:31:18;;;;;;;3.92;3.20;;;14.00;71.50;;;;;;4995395;28;20060;-70
2022/04/11 12:33:51;;;;;;;4.35;2.65;;;14.10;71.70;;;;;;4996021;28;20045;-70
2022/04/11 12:36:16;;;;;;;3.80;2.78;;;14.00;71.80;;;;;;4994669;28;20042;-70
2022/04/11 12:38:48;;;;;;;3.83;2.88;;;14.10;72.70;;;;;;4995125;28;20065;-69
2022/04/11 12:41:28;;;;;;;4.65;3.05;;;14.20;71.50;;;;;;4996098;28;20408;-70
2022/04/11 12:44:07;;;;;;;8.27;3.25;;;14.30;71.60;;;;;;5012319;28;20049;-69
2022/04/11 12:46:41;;;;;;;5.00;3.35;;;14.40;71.60;;;;;;5015845;28;20050;-70
2022/04/11 12:49:09;;;;;;;4.60;3.05;;;14.50;71.90;;;;;;5016752;28;20041;-70
2022/04/11 12:51:35;;;;;;;4.10;2.92;;;14.70;73.90;;;;;;5017108;28;20049;-70
2022/04/11 12:54:12;;;;;;;5.00;3.00;;;14.90;72.00;;;;;;5016001;28;20049;-70
2022/04/11 12:56:38;;;;;;;7.90;3.95;;;14.60;67.10;;;;;;5015483;28;20124;-70
2022/04/11 12:59:04;;;;;;;5.00;3.67;;;15.10;71.30;;;;;;5010034;28;20050;-70